createdAt,value
2018-04-27T00:00:14.752Z,1007.9
2018-04-27T00:01:17.142Z,1007.9
2018-04-27T00:02:19.502Z,1007.9
2018-04-27T00:03:21.878Z,1007.9
2018-04-27T00:04:24.262Z,1007.9
2018-04-27T00:05:26.642Z,1007.9
2018-04-27T00:06:29.402Z,1007.9
2018-04-27T00:07:31.786Z,1008
2018-04-27T00:08:34.152Z,1007.9
2018-04-27T00:09:36.526Z,1007.9
2018-04-27T00:10:38.898Z,1008
2018-04-27T00:11:41.284Z,1007.9
2018-04-27T00:12:43.666Z,1008
2018-04-27T00:13:46.037Z,1007.9
2018-04-27T00:14:48.408Z,1007.9
2018-04-27T00:15:50.792Z,1007.9
2018-04-27T00:16:53.447Z,1007.9
2018-04-27T00:17:55.819Z,1007.8
2018-04-27T00:18:58.466Z,1007.9
2018-04-27T00:20:01.232Z,1007.9
2018-04-27T00:21:03.915Z,1007.9
2018-04-27T00:22:06.293Z,1007.8
2018-04-27T00:23:08.668Z,1007.8
2018-04-27T00:24:11.040Z,1007.8
2018-04-27T00:25:13.408Z,1007.7
2018-04-27T00:26:16.189Z,1007.8
2018-04-27T00:27:18.564Z,1007.8
2018-04-27T00:28:21.208Z,1007.7
2018-04-27T00:29:23.590Z,1007.8
2018-04-27T00:30:26.351Z,1007.8
2018-04-27T00:31:28.727Z,1007.7
2018-04-27T00:32:31.110Z,1007.7
2018-04-27T00:33:33.482Z,1007.7
2018-04-27T00:34:36.139Z,1007.7
2018-04-27T00:35:38.527Z,1007.7
2018-04-27T00:36:40.890Z,1007.7
2018-04-27T00:37:43.278Z,1007.7
2018-04-27T00:38:45.657Z,1007.6
2018-04-27T00:39:48.412Z,1007.7
2018-04-27T00:40:50.788Z,1007.6
2018-04-27T00:41:53.443Z,1007.7
2018-04-27T00:42:55.821Z,1007.7
2018-04-27T00:43:58.203Z,1007.7
2018-04-27T00:45:00.566Z,1007.7
2018-04-27T00:46:02.935Z,1007.6
2018-04-27T00:47:05.604Z,1007.7
2018-04-27T00:48:08.261Z,1007.7
2018-04-27T00:49:10.639Z,1007.6
2018-04-27T00:50:13.298Z,1007.6
2018-04-27T00:51:15.672Z,1007.6
2018-04-27T00:52:18.338Z,1007.6
2018-04-27T00:53:20.710Z,1007.6
2018-04-27T00:54:23.384Z,1007.6
2018-04-27T00:55:25.760Z,1007.6
2018-04-27T00:56:28.135Z,1007.6
2018-04-27T00:57:30.787Z,1007.6
2018-04-27T00:58:33.176Z,1007.6
2018-04-27T00:59:35.536Z,1007.6
2018-04-27T01:00:37.913Z,1007.6
2018-04-27T01:01:40.303Z,1007.6
2018-04-27T01:02:42.681Z,1007.6
2018-04-27T01:03:45.085Z,1007.6
2018-04-27T01:04:47.745Z,1007.6
2018-04-27T01:05:50.113Z,1007.5
2018-04-27T01:06:52.871Z,1007.5
2018-04-27T01:07:55.244Z,1007.6
2018-04-27T01:08:57.934Z,1007.6
2018-04-27T01:10:00.305Z,1007.5
2018-04-27T01:11:02.684Z,1007.6
2018-04-27T01:12:05.059Z,1007.6
2018-04-27T01:13:07.438Z,1007.5
2018-04-27T01:14:09.815Z,1007.5
2018-04-27T01:15:12.201Z,1007.5
2018-04-27T01:16:14.953Z,1007.6
2018-04-27T01:17:17.336Z,1007.5
2018-04-27T01:18:19.706Z,1007.5
2018-04-27T01:19:22.094Z,1007.5
2018-04-27T01:20:24.457Z,1007.6
2018-04-27T01:21:26.832Z,1007.5
2018-04-27T01:22:29.199Z,1007.6
2018-04-27T01:23:31.863Z,1007.5
2018-04-27T01:24:34.235Z,1007.6
2018-04-27T01:25:36.618Z,1007.5
2018-04-27T01:26:39.278Z,1007.5
2018-04-27T01:27:42.040Z,1007.6
2018-04-27T01:28:44.416Z,1007.5
2018-04-27T01:29:46.785Z,1007.6
2018-04-27T01:30:49.155Z,1007.5
2018-04-27T01:31:51.533Z,1007.6
2018-04-27T01:32:53.916Z,1007.6
2018-04-27T01:33:56.295Z,1007.5
2018-04-27T01:34:58.663Z,1007.6
2018-04-27T01:36:01.032Z,1007.6
2018-04-27T01:37:03.418Z,1007.6
2018-04-27T01:38:05.787Z,1007.6
2018-04-27T01:39:08.171Z,1007.6
2018-04-27T01:40:10.827Z,1007.6
2018-04-27T01:41:13.205Z,1007.6
2018-04-27T01:42:15.578Z,1007.6
2018-04-27T01:43:17.956Z,1007.6
2018-04-27T01:44:20.321Z,1007.6
2018-04-27T01:45:22.987Z,1007.6
2018-04-27T01:46:25.373Z,1007.6
2018-04-27T01:47:27.754Z,1007.6
2018-04-27T01:48:30.138Z,1007.6
2018-04-27T01:49:32.520Z,1007.6
2018-04-27T01:50:35.164Z,1007.6
2018-04-27T01:51:37.542Z,1007.7
2018-04-27T01:52:39.922Z,1007.6
2018-04-27T01:53:42.294Z,1007.6
2018-04-27T01:54:44.680Z,1007.7
2018-04-27T01:55:47.370Z,1007.7
2018-04-27T01:56:49.735Z,1007.7
2018-04-27T01:57:52.127Z,1007.7
2018-04-27T01:58:54.490Z,1007.7
2018-04-27T01:59:56.878Z,1007.6
2018-04-27T02:00:59.268Z,1007.7
2018-04-27T02:02:01.637Z,1007.6
2018-04-27T02:03:04.404Z,1007.7
2018-04-27T02:04:07.069Z,1007.7
2018-04-27T02:05:09.446Z,1007.6
2018-04-27T02:06:11.826Z,1007.6
2018-04-27T02:07:14.761Z,1007.6
2018-04-27T02:08:17.152Z,1007.7
2018-04-27T02:09:19.528Z,1007.7
2018-04-27T02:10:22.279Z,1007.6
2018-04-27T02:11:24.663Z,1007.6
2018-04-27T02:12:27.705Z,1007.6
2018-04-27T02:13:30.373Z,1007.6
2018-04-27T02:14:33.030Z,1007.6
2018-04-27T02:15:35.400Z,1007.6
2018-04-27T02:16:37.777Z,1007.6
2018-04-27T02:17:40.169Z,1007.6
2018-04-27T02:18:42.540Z,1007.6
2018-04-27T02:19:45.196Z,1007.6
2018-04-27T02:20:48.146Z,1007.6
2018-04-27T02:21:51.206Z,1007.5
2018-04-27T02:22:53.594Z,1007.6
2018-04-27T02:23:55.980Z,1007.5
2018-04-27T02:24:58.403Z,1007.5
2018-04-27T02:26:00.731Z,1007.5
2018-04-27T02:27:03.108Z,1007.6
2018-04-27T02:28:05.763Z,1007.5
2018-04-27T02:29:08.138Z,1007.5
2018-04-27T02:30:10.793Z,1007.6
2018-04-27T02:31:13.741Z,1007.6
2018-04-27T02:32:16.135Z,1007.6
2018-04-27T02:33:18.795Z,1007.5
2018-04-27T02:34:21.843Z,1007.5
2018-04-27T02:35:25.176Z,1007.5
2018-04-27T02:36:27.827Z,1007.6
2018-04-27T02:37:30.202Z,1007.5
2018-04-27T02:38:32.566Z,1007.5
2018-04-27T02:39:34.959Z,1007.5
2018-04-27T02:40:37.349Z,1007.5
2018-04-27T02:41:39.995Z,1007.5
2018-04-27T02:42:42.657Z,1007.5
2018-04-27T02:43:45.039Z,1007.5
2018-04-27T02:44:48.363Z,1007.5
2018-04-27T02:45:51.311Z,1007.5
2018-04-27T02:46:53.687Z,1007.5
2018-04-27T02:47:56.630Z,1007.5
2018-04-27T02:48:59.406Z,1007.5
2018-04-27T02:50:02.122Z,1007.5
2018-04-27T02:51:04.516Z,1007.5
2018-04-27T02:52:07.739Z,1007.5
2018-04-27T02:53:10.503Z,1007.5
2018-04-27T02:54:13.166Z,1007.5
2018-04-27T02:55:15.542Z,1007.5
2018-04-27T02:56:18.203Z,1007.5
2018-04-27T02:57:20.583Z,1007.5
2018-04-27T02:58:23.910Z,1007.5
2018-04-27T02:59:26.299Z,1007.5
2018-04-27T03:00:28.674Z,1007.5
2018-04-27T03:01:31.440Z,1007.5
2018-04-27T03:02:33.825Z,1007.4
2018-04-27T03:03:36.490Z,1007.5
2018-04-27T03:04:38.867Z,1007.4
2018-04-27T03:05:41.520Z,1007.4
2018-04-27T03:06:43.888Z,1007.4
2018-04-27T03:07:46.266Z,1007.4
2018-04-27T03:08:49.023Z,1007.4
2018-04-27T03:09:51.408Z,1007.4
2018-04-27T03:10:54.350Z,1007.4
2018-04-27T03:11:57.398Z,1007.4
2018-04-27T03:13:00.362Z,1007.4
2018-04-27T03:14:02.745Z,1007.4
2018-04-27T03:15:05.406Z,1007.4
2018-04-27T03:16:08.068Z,1007.4
2018-04-27T03:17:10.443Z,1007.4
2018-04-27T03:18:13.103Z,1007.4
2018-04-27T03:19:15.475Z,1007.4
2018-04-27T03:20:17.848Z,1007.4
2018-04-27T03:21:20.223Z,1007.4
2018-04-27T03:22:22.905Z,1007.3
2018-04-27T03:23:25.282Z,1007.3
2018-04-27T03:24:27.647Z,1007.3
2018-04-27T03:25:30.310Z,1007.3
2018-04-27T03:26:33.361Z,1007.3
2018-04-27T03:27:35.738Z,1007.3
2018-04-27T03:28:38.122Z,1007.3
2018-04-27T03:29:40.502Z,1007.3
2018-04-27T03:30:42.873Z,1007.3
2018-04-27T03:31:45.559Z,1007.3
2018-04-27T03:32:48.524Z,1007.3
2018-04-27T03:33:50.893Z,1007.3
2018-04-27T03:34:53.274Z,1007.3
2018-04-27T03:35:55.652Z,1007.3
2018-04-27T03:36:58.687Z,1007.3
2018-04-27T03:38:01.440Z,1007.3
2018-04-27T03:39:03.836Z,1007.3
2018-04-27T03:40:06.211Z,1007.3
2018-04-27T03:41:08.590Z,1007.2
2018-04-27T03:42:10.967Z,1007.3
2018-04-27T03:43:13.344Z,1007.3
2018-04-27T03:44:15.717Z,1007.3
2018-04-27T03:45:18.098Z,1007.2
2018-04-27T03:46:20.461Z,1007.3
2018-04-27T03:47:22.841Z,1007.3
2018-04-27T03:48:25.212Z,1007.3
2018-04-27T03:49:28.164Z,1007.3
2018-04-27T03:50:30.545Z,1007.3
2018-04-27T03:51:32.920Z,1007.3
2018-04-27T03:52:35.297Z,1007.3
2018-04-27T03:53:37.675Z,1007.3
2018-04-27T03:54:40.055Z,1007.4
2018-04-27T03:55:42.437Z,1007.3
2018-04-27T03:56:44.825Z,1007.4
2018-04-27T03:57:47.468Z,1007.3
2018-04-27T03:58:49.870Z,1007.4
2018-04-27T03:59:52.244Z,1007.4
2018-04-27T04:00:54.617Z,1007.3
2018-04-27T04:01:57.268Z,1007.3
2018-04-27T04:02:59.651Z,1007.4
2018-04-27T04:04:02.033Z,1007.3
2018-04-27T04:05:04.400Z,1007.3
2018-04-27T04:06:06.782Z,1007.4
2018-04-27T04:07:09.154Z,1007.4
2018-04-27T04:08:11.533Z,1007.4
2018-04-27T04:09:13.909Z,1007.4
2018-04-27T04:10:16.567Z,1007.4
2018-04-27T04:11:18.933Z,1007.4
2018-04-27T04:12:21.606Z,1007.4
2018-04-27T04:13:23.977Z,1007.4
2018-04-27T04:14:27.012Z,1007.4
2018-04-27T04:15:29.389Z,1007.4
2018-04-27T04:16:31.771Z,1007.3
2018-04-27T04:17:34.146Z,1007.4
2018-04-27T04:18:36.531Z,1007.4
2018-04-27T04:19:38.901Z,1007.3
2018-04-27T04:20:41.279Z,1007.3
2018-04-27T04:21:43.666Z,1007.3
2018-04-27T04:22:46.044Z,1007.3
2018-04-27T04:23:48.700Z,1007.3
2018-04-27T04:24:51.074Z,1007.3
2018-04-27T04:25:53.730Z,1007.3
2018-04-27T04:26:56.103Z,1007.4
2018-04-27T04:27:58.481Z,1007.3
2018-04-27T04:29:00.845Z,1007.3
2018-04-27T04:30:03.502Z,1007.3
2018-04-27T04:31:05.881Z,1007.4
2018-04-27T04:32:08.259Z,1007.3
2018-04-27T04:33:10.637Z,1007.4
2018-04-27T04:34:13.020Z,1007.3
2018-04-27T04:35:15.673Z,1007.3
2018-04-27T04:36:18.058Z,1007.3
2018-04-27T04:37:20.442Z,1007.3
2018-04-27T04:38:22.869Z,1007.3
2018-04-27T04:39:25.546Z,1007.4
2018-04-27T04:40:27.917Z,1007.4
2018-04-27T04:41:30.289Z,1007.3
2018-04-27T04:42:32.664Z,1007.4
2018-04-27T04:43:35.037Z,1007.4
2018-04-27T04:44:37.407Z,1007.4
2018-04-27T04:45:39.801Z,1007.4
2018-04-27T04:46:42.178Z,1007.4
2018-04-27T04:47:44.578Z,1007.4
2018-04-27T04:48:46.929Z,1007.4
2018-04-27T04:49:49.308Z,1007.5
2018-04-27T04:50:51.685Z,1007.4
2018-04-27T04:51:54.053Z,1007.4
2018-04-27T04:52:56.433Z,1007.4
2018-04-27T04:53:58.800Z,1007.4
2018-04-27T04:55:01.194Z,1007.5
2018-04-27T04:56:03.849Z,1007.5
2018-04-27T04:57:06.228Z,1007.5
2018-04-27T04:58:08.883Z,1007.5
2018-04-27T04:59:11.547Z,1007.5
2018-04-27T05:00:14.229Z,1007.5
2018-04-27T05:01:16.890Z,1007.5
2018-04-27T05:02:19.262Z,1007.6
2018-04-27T05:03:21.643Z,1007.5
2018-04-27T05:04:24.033Z,1007.5
2018-04-27T05:05:26.411Z,1007.5
2018-04-27T05:06:28.785Z,1007.6
2018-04-27T05:07:31.445Z,1007.5
2018-04-27T05:08:33.820Z,1007.5
2018-04-27T05:09:36.188Z,1007.5
2018-04-27T05:10:38.645Z,1007.6
2018-04-27T05:11:40.942Z,1007.6
2018-04-27T05:12:43.327Z,1007.5
2018-04-27T05:13:45.703Z,1007.6
2018-04-27T05:14:48.463Z,1007.7
2018-04-27T05:15:50.836Z,1007.7
2018-04-27T05:16:53.505Z,1007.6
2018-04-27T05:17:55.876Z,1007.7
2018-04-27T05:18:58.263Z,1007.6
2018-04-27T05:20:01.025Z,1007.6
2018-04-27T05:21:03.401Z,1007.7
2018-04-27T05:22:05.774Z,1007.6
2018-04-27T05:23:08.153Z,1007.7
2018-04-27T05:24:10.536Z,1007.7
2018-04-27T05:25:12.906Z,1007.7
2018-04-27T05:26:15.278Z,1007.7
2018-04-27T05:27:17.664Z,1007.7
2018-04-27T05:28:20.037Z,1007.7
2018-04-27T05:29:22.421Z,1007.7
2018-04-27T05:30:24.792Z,1007.7
2018-04-27T05:31:27.454Z,1007.7
2018-04-27T05:32:30.118Z,1007.8
2018-04-27T05:33:32.484Z,1007.8
2018-04-27T05:34:34.857Z,1007.8
2018-04-27T05:35:37.521Z,1007.8
2018-04-27T05:36:40.469Z,1007.8
2018-04-27T05:37:42.847Z,1007.8
2018-04-27T05:38:45.220Z,1007.8
2018-04-27T05:39:47.595Z,1007.8
2018-04-27T05:40:49.981Z,1007.8
2018-04-27T05:41:52.364Z,1007.8
2018-04-27T05:42:55.415Z,1007.8
2018-04-27T05:43:57.797Z,1007.8
2018-04-27T05:45:00.184Z,1007.8
2018-04-27T05:46:02.561Z,1007.8
2018-04-27T05:47:04.944Z,1007.7
2018-04-27T05:48:07.315Z,1007.8
2018-04-27T05:49:09.697Z,1007.7
2018-04-27T05:50:12.074Z,1007.8
2018-04-27T05:51:14.451Z,1007.7
2018-04-27T05:52:17.210Z,1007.7
2018-04-27T05:53:19.572Z,1007.7
2018-04-27T05:54:21.960Z,1007.7
2018-04-27T05:55:24.606Z,1007.7
2018-04-27T05:56:26.992Z,1007.7
2018-04-27T05:57:29.931Z,1007.7
2018-04-27T05:58:32.315Z,1007.7
2018-04-27T05:59:34.695Z,1007.6
2018-04-27T06:00:37.356Z,1007.7
2018-04-27T06:01:40.014Z,1007.6
2018-04-27T06:02:42.392Z,1007.7
2018-04-27T06:03:44.771Z,1007.7
2018-04-27T06:04:47.141Z,1007.6
2018-04-27T06:05:49.515Z,1007.6
2018-04-27T06:06:52.594Z,1007.6
2018-04-27T06:07:54.967Z,1007.6
2018-04-27T06:08:57.348Z,1007.6
2018-04-27T06:10:00.041Z,1007.5
2018-04-27T06:11:02.835Z,1007.6
2018-04-27T06:12:05.222Z,1007.6
2018-04-27T06:13:07.982Z,1007.6
2018-04-27T06:14:10.348Z,1007.5
2018-04-27T06:15:13.111Z,1007.5
2018-04-27T06:16:15.486Z,1007.5
2018-04-27T06:17:17.848Z,1007.5
2018-04-27T06:18:20.242Z,1007.5
2018-04-27T06:19:22.619Z,1007.5
2018-04-27T06:20:25.370Z,1007.5
2018-04-27T06:21:28.038Z,1007.5
2018-04-27T06:22:30.413Z,1007.5
2018-04-27T06:23:32.807Z,1007.5
2018-04-27T06:24:35.475Z,1007.5
2018-04-27T06:25:37.851Z,1007.5
2018-04-27T06:26:40.522Z,1007.5
2018-04-27T06:27:42.917Z,1007.4
2018-04-27T06:28:45.291Z,1007.5
2018-04-27T06:29:47.667Z,1007.5
2018-04-27T06:30:50.331Z,1007.5
2018-04-27T06:31:53.060Z,1007.5
2018-04-27T06:32:55.828Z,1007.5
2018-04-27T06:33:58.217Z,1007.5
2018-04-27T06:35:00.581Z,1007.5
2018-04-27T06:36:03.231Z,1007.5
2018-04-27T06:37:05.902Z,1007.5
2018-04-27T06:38:08.275Z,1007.5
2018-04-27T06:39:10.958Z,1007.4
2018-04-27T06:40:13.615Z,1007.4
2018-04-27T06:41:15.984Z,1007.4
2018-04-27T06:42:18.374Z,1007.4
2018-04-27T06:43:21.035Z,1007.4
2018-04-27T06:44:23.411Z,1007.4
2018-04-27T06:45:25.791Z,1007.4
2018-04-27T06:46:28.453Z,1007.4
2018-04-27T06:47:30.839Z,1007.4
2018-04-27T06:48:33.216Z,1007.3
2018-04-27T06:49:35.588Z,1007.4
2018-04-27T06:50:38.243Z,1007.4
2018-04-27T06:51:40.629Z,1007.3
2018-04-27T06:52:43.005Z,1007.4
2018-04-27T06:53:45.384Z,1007.3
2018-04-27T06:54:47.761Z,1007.3
2018-04-27T06:55:50.142Z,1007.3
2018-04-27T06:56:52.528Z,1007.4
2018-04-27T06:57:55.291Z,1007.4
2018-04-27T06:58:57.655Z,1007.4
2018-04-27T07:00:00.036Z,1007.4
2018-04-27T07:01:02.715Z,1007.4
2018-04-27T07:02:05.675Z,1007.4
2018-04-27T07:03:08.061Z,1007.4
2018-04-27T07:04:10.440Z,1007.4
2018-04-27T07:05:12.889Z,1007.4
2018-04-27T07:06:15.208Z,1007.4
2018-04-27T07:07:17.863Z,1007.4
2018-04-27T07:08:20.262Z,1007.4
2018-04-27T07:09:22.918Z,1007.3
2018-04-27T07:10:25.309Z,1007.4
2018-04-27T07:11:27.702Z,1007.3
2018-04-27T07:12:30.082Z,1007.3
2018-04-27T07:13:32.467Z,1007.4
2018-04-27T07:14:34.859Z,1007.4
2018-04-27T07:15:37.241Z,1007.3
2018-04-27T07:16:39.628Z,1007.3
2018-04-27T07:17:42.015Z,1007.4
2018-04-27T07:18:44.393Z,1007.3
2018-04-27T07:19:46.782Z,1007.3
2018-04-27T07:20:49.168Z,1007.4
2018-04-27T07:21:51.831Z,1007.4
2018-04-27T07:22:54.226Z,1007.4
2018-04-27T07:23:56.993Z,1007.3
2018-04-27T07:24:59.397Z,1007.3
2018-04-27T07:26:02.047Z,1007.3
2018-04-27T07:27:04.432Z,1007.3
2018-04-27T07:28:06.815Z,1007.3
2018-04-27T07:29:09.488Z,1007.3
2018-04-27T07:30:11.869Z,1007.4
2018-04-27T07:31:14.258Z,1007.3
2018-04-27T07:32:16.936Z,1007.4
2018-04-27T07:33:19.320Z,1007.4
2018-04-27T07:34:21.689Z,1007.4
2018-04-27T07:35:24.090Z,1007.4
2018-04-27T07:36:26.459Z,1007.5
2018-04-27T07:37:28.843Z,1007.4
2018-04-27T07:38:31.227Z,1007.4
2018-04-27T07:39:33.606Z,1007.4
2018-04-27T07:40:35.990Z,1007.4
2018-04-27T07:41:38.670Z,1007.4
2018-04-27T07:42:41.051Z,1007.4
2018-04-27T07:43:43.435Z,1007.4
2018-04-27T07:44:45.821Z,1007.5
2018-04-27T07:45:48.205Z,1007.4
2018-04-27T07:46:50.597Z,1007.4
2018-04-27T07:47:52.981Z,1007.4
2018-04-27T07:48:55.352Z,1007.4
2018-04-27T07:49:57.748Z,1007.4
2018-04-27T07:51:00.128Z,1007.4
2018-04-27T07:52:02.510Z,1007.3
2018-04-27T07:53:04.901Z,1007.3
2018-04-27T07:54:07.279Z,1007.4
2018-04-27T07:55:09.657Z,1007.4
2018-04-27T07:56:12.060Z,1007.4
2018-04-27T07:57:14.726Z,1007.4
2018-04-27T07:58:17.119Z,1007.4
2018-04-27T07:59:19.503Z,1007.4
2018-04-27T08:00:21.876Z,1007.4
2018-04-27T08:01:24.266Z,1007.3
2018-04-27T08:02:26.742Z,1007.3
2018-04-27T08:03:29.909Z,1007.4
2018-04-27T08:04:32.293Z,1007.4
2018-04-27T08:05:34.666Z,1007.4
2018-04-27T08:06:37.329Z,1007.4
2018-04-27T08:07:39.716Z,1007.4
2018-04-27T08:08:42.100Z,1007.3
2018-04-27T08:09:44.488Z,1007.3
2018-04-27T08:10:46.868Z,1007.3
2018-04-27T08:11:49.253Z,1007.3
2018-04-27T08:12:51.646Z,1007.3
2018-04-27T08:13:54.024Z,1007.3
2018-04-27T08:14:56.414Z,1007.3
2018-04-27T08:15:58.807Z,1007.3
2018-04-27T08:17:01.193Z,1007.3
2018-04-27T08:18:03.584Z,1007.3
2018-04-27T08:19:06.638Z,1007.4
2018-04-27T08:20:09.014Z,1007.4
2018-04-27T08:21:11.675Z,1007.3
2018-04-27T08:22:14.337Z,1007.2
2018-04-27T08:23:16.713Z,1007.3
2018-04-27T08:24:19.375Z,1007.2
2018-04-27T08:25:21.755Z,1007.3
2018-04-27T08:26:24.147Z,1007.2
2018-04-27T08:27:26.821Z,1007.2
2018-04-27T08:28:29.207Z,1007.3
2018-04-27T08:29:31.874Z,1007.2
2018-04-27T08:30:34.266Z,1007.3
2018-04-27T08:31:36.644Z,1007.2
2018-04-27T08:32:39.031Z,1007.3
2018-04-27T08:33:41.729Z,1007.2
2018-04-27T08:34:44.122Z,1007.2
2018-04-27T08:35:46.784Z,1007.2
2018-04-27T08:36:49.457Z,1007.2
2018-04-27T08:37:51.841Z,1007.2
2018-04-27T08:38:54.239Z,1007.2
2018-04-27T08:39:56.906Z,1007.2
2018-04-27T08:40:59.293Z,1007.2
2018-04-27T08:42:01.694Z,1007.2
2018-04-27T08:43:04.361Z,1007.2
2018-04-27T08:44:06.747Z,1007.2
2018-04-27T08:45:09.137Z,1007.2
2018-04-27T08:46:11.510Z,1007.2
2018-04-27T08:47:13.898Z,1007.2
2018-04-27T08:48:16.606Z,1007.2
2018-04-27T08:49:18.990Z,1007.1
2018-04-27T08:50:21.642Z,1007.2
2018-04-27T08:51:24.117Z,1007.2
2018-04-27T08:52:27.070Z,1007.2
2018-04-27T08:53:29.752Z,1007.2
2018-04-27T08:54:32.645Z,1007.2
2018-04-27T08:55:35.049Z,1007.2
2018-04-27T08:56:37.740Z,1007.2
2018-04-27T08:57:40.135Z,1007.2
2018-04-27T08:58:42.533Z,1007.2
2018-04-27T08:59:45.772Z,1007.2
2018-04-27T09:00:49.560Z,1007.2
2018-04-27T09:01:52.422Z,1007.2
2018-04-27T09:02:54.847Z,1007.2
2018-04-27T09:03:57.518Z,1007.3
2018-04-27T09:05:00.492Z,1007.2
2018-04-27T09:06:03.449Z,1007.2
2018-04-27T09:07:05.895Z,1007.2
2018-04-27T09:08:08.567Z,1007.2
2018-04-27T09:09:11.263Z,1007.2
2018-04-27T09:10:13.644Z,1007.1
2018-04-27T09:11:16.344Z,1007.2
2018-04-27T09:12:18.720Z,1007.2
2018-04-27T09:13:21.387Z,1007.2
2018-04-27T09:14:23.789Z,1007.2
2018-04-27T09:15:26.213Z,1007.2
2018-04-27T09:16:28.644Z,1007.2
2018-04-27T09:17:31.043Z,1007.3
2018-04-27T09:18:33.427Z,1007.3
2018-04-27T09:19:36.144Z,1007.3
2018-04-27T09:20:38.818Z,1007.2
2018-04-27T09:21:41.285Z,1007.2
2018-04-27T09:22:44.056Z,1007.2
2018-04-27T09:23:46.480Z,1007.2
2018-04-27T09:24:48.871Z,1007.2
2018-04-27T09:25:51.282Z,1007.2
2018-04-27T09:26:53.722Z,1007.2
2018-04-27T09:27:56.045Z,1007.2
2018-04-27T09:28:58.446Z,1007.2
2018-04-27T09:30:00.876Z,1007.2
2018-04-27T09:31:03.546Z,1007.2
2018-04-27T09:32:05.971Z,1007.2
2018-04-27T09:33:08.372Z,1007.2
2018-04-27T09:34:10.775Z,1007.2
2018-04-27T09:35:13.155Z,1007.2
2018-04-27T09:36:15.553Z,1007.2
2018-04-27T09:37:17.939Z,1007.1
2018-04-27T09:38:20.353Z,1007.1
2018-04-27T09:39:23.089Z,1007.2
2018-04-27T09:40:25.471Z,1007.1
2018-04-27T09:41:27.909Z,1007.1
2018-04-27T09:42:30.403Z,1007.2
2018-04-27T09:43:33.363Z,1007.1
2018-04-27T09:44:35.767Z,1007.1
2018-04-27T09:45:38.141Z,1007.2
2018-04-27T09:46:40.809Z,1007.2
2018-04-27T09:47:43.201Z,1007.1
2018-04-27T09:48:45.584Z,1007.2
2018-04-27T09:49:47.984Z,1007.1
2018-04-27T09:50:50.404Z,1007
2018-04-27T09:51:52.758Z,1007
2018-04-27T09:52:55.160Z,1007
2018-04-27T09:53:57.842Z,1007
2018-04-27T09:55:00.512Z,1007
2018-04-27T09:56:02.909Z,1007
2018-04-27T09:57:05.296Z,1007
2018-04-27T09:58:07.689Z,1006.9
2018-04-27T09:59:10.077Z,1007
2018-04-27T10:00:12.474Z,1006.9
2018-04-27T10:01:15.153Z,1006.9
2018-04-27T10:02:17.538Z,1006.9
2018-04-27T10:03:19.946Z,1006.8
2018-04-27T10:04:22.337Z,1006.8
2018-04-27T10:05:24.735Z,1006.8
2018-04-27T10:06:27.122Z,1006.9
2018-04-27T10:07:29.513Z,1006.8
2018-04-27T10:08:31.907Z,1006.7
2018-04-27T10:09:34.306Z,1006.8
2018-04-27T10:10:36.701Z,1006.8
2018-04-27T10:11:39.084Z,1006.7
2018-04-27T10:12:41.756Z,1006.7
2018-04-27T10:13:44.157Z,1006.6
2018-04-27T10:14:46.551Z,1006.7
2018-04-27T10:15:48.949Z,1006.7
2018-04-27T10:16:51.334Z,1006.7
2018-04-27T10:17:53.730Z,1006.5
2018-04-27T10:18:56.129Z,1006.5
2018-04-27T10:19:58.531Z,1006.6
2018-04-27T10:21:00.930Z,1006.5
2018-04-27T10:22:03.321Z,1006.5
2018-04-27T10:23:05.724Z,1006.5
2018-04-27T10:24:08.122Z,1006.5
2018-04-27T10:25:10.798Z,1006.5
2018-04-27T10:26:13.190Z,1006.5
2018-04-27T10:27:15.570Z,1006.5
2018-04-27T10:28:17.973Z,1006.5
2018-04-27T10:29:20.363Z,1006.4
2018-04-27T10:30:22.759Z,1006.4
2018-04-27T10:31:25.158Z,1006.4
2018-04-27T10:32:27.559Z,1006.5
2018-04-27T10:33:29.947Z,1006.5
2018-04-27T10:34:32.347Z,1006.4
2018-04-27T10:35:34.740Z,1006.5
2018-04-27T10:36:37.610Z,1006.6
2018-04-27T10:37:39.903Z,1006.4
2018-04-27T10:38:42.592Z,1006.5
2018-04-27T10:39:44.994Z,1006.5
2018-04-27T10:40:47.396Z,1006.5
2018-04-27T10:41:49.793Z,1006.4
2018-04-27T10:42:52.856Z,1006.3
2018-04-27T10:43:55.262Z,1006.3
2018-04-27T10:44:57.641Z,1006.3
2018-04-27T10:46:00.036Z,1006.4
2018-04-27T10:47:02.441Z,1006.3
2018-04-27T10:48:05.136Z,1006.3
2018-04-27T10:49:07.817Z,1006.3
2018-04-27T10:50:10.284Z,1006.3
2018-04-27T10:51:13.701Z,1006.3
2018-04-27T10:52:16.096Z,1006.3
2018-04-27T10:53:18.489Z,1006.3
2018-04-27T10:54:20.869Z,1006.2
2018-04-27T10:55:23.266Z,1006.2
2018-04-27T10:56:25.948Z,1006.3
2018-04-27T10:57:28.346Z,1006.2
2018-04-27T10:58:30.738Z,1006.2
2018-04-27T10:59:33.149Z,1006.3
2018-04-27T11:00:35.551Z,1006.2
2018-04-27T11:01:37.950Z,1006.1
2018-04-27T11:02:40.347Z,1006.2
2018-04-27T11:03:42.746Z,1006.2
2018-04-27T11:04:45.127Z,1006.2
2018-04-27T11:05:47.522Z,1006.1
2018-04-27T11:06:49.913Z,1006.1
2018-04-27T11:07:52.577Z,1006.1
2018-04-27T11:08:54.988Z,1006.2
2018-04-27T11:09:57.379Z,1006.1
2018-04-27T11:10:59.776Z,1006.1
2018-04-27T11:12:02.902Z,1006.1
2018-04-27T11:13:05.290Z,1006
2018-04-27T11:14:07.684Z,1006
2018-04-27T11:15:10.075Z,1006
2018-04-27T11:16:12.513Z,1006
2018-04-27T11:17:14.863Z,1006
2018-04-27T11:18:17.268Z,1006
2018-04-27T11:19:19.947Z,1006
2018-04-27T11:20:22.616Z,1005.8
2018-04-27T11:21:25.021Z,1005.9
2018-04-27T11:22:27.412Z,1006
2018-04-27T11:23:29.811Z,1006
2018-04-27T11:24:32.203Z,1005.9
2018-04-27T11:25:34.602Z,1005.8
2018-04-27T11:26:37.283Z,1005.8
2018-04-27T11:27:39.687Z,1005.8
2018-04-27T11:28:42.428Z,1005.8
2018-04-27T11:29:45.179Z,1005.8
2018-04-27T11:30:47.857Z,1005.8
2018-04-27T11:31:50.253Z,1005.8
2018-04-27T11:32:52.921Z,1005.9
2018-04-27T11:33:55.305Z,1005.8
2018-04-27T11:34:58.377Z,1005.8
2018-04-27T11:36:00.767Z,1005.7
2018-04-27T11:37:03.442Z,1005.8
2018-04-27T11:38:06.219Z,1005.8
2018-04-27T11:39:08.614Z,1005.8
2018-04-27T11:40:11.014Z,1005.7
2018-04-27T11:41:13.428Z,1005.7
2018-04-27T11:42:16.928Z,1005.8
2018-04-27T11:43:19.624Z,1005.7
2018-04-27T11:44:22.017Z,1005.8
2018-04-27T11:45:24.417Z,1005.8
2018-04-27T11:46:26.808Z,1005.8
2018-04-27T11:47:29.208Z,1005.8
2018-04-27T11:48:31.885Z,1005.7
2018-04-27T11:49:34.278Z,1005.8
2018-04-27T11:50:37.053Z,1005.8
2018-04-27T11:51:39.441Z,1005.7
2018-04-27T11:52:42.140Z,1005.7
2018-04-27T11:53:44.815Z,1005.7
2018-04-27T11:54:47.207Z,1005.7
2018-04-27T11:55:49.601Z,1005.7
2018-04-27T11:56:51.992Z,1005.7
2018-04-27T11:57:55.332Z,1005.7
2018-04-27T11:58:57.721Z,1005.6
2018-04-27T12:00:00.136Z,1005.6
2018-04-27T12:01:02.529Z,1005.6
2018-04-27T12:02:04.923Z,1005.6
2018-04-27T12:03:07.315Z,1005.6
2018-04-27T12:04:09.713Z,1005.7
2018-04-27T12:05:12.113Z,1005.6
2018-04-27T12:06:14.790Z,1005.6
2018-04-27T12:07:17.176Z,1005.6
2018-04-27T12:08:19.585Z,1005.5
2018-04-27T12:09:21.977Z,1005.6
2018-04-27T12:10:24.379Z,1005.5
2018-04-27T12:11:26.773Z,1005.6
2018-04-27T12:12:29.167Z,1005.5
2018-04-27T12:13:32.225Z,1005.5
2018-04-27T12:14:34.622Z,1005.5
2018-04-27T12:15:37.295Z,1005.5
2018-04-27T12:16:39.986Z,1005.6
2018-04-27T12:17:42.701Z,1005.6
2018-04-27T12:18:45.092Z,1005.5
2018-04-27T12:19:47.489Z,1005.6
2018-04-27T12:20:49.884Z,1005.5
2018-04-27T12:21:52.284Z,1005.5
2018-04-27T12:22:54.687Z,1005.5
2018-04-27T12:23:57.084Z,1005.5
2018-04-27T12:24:59.468Z,1005.5
2018-04-27T12:26:01.863Z,1005.5
2018-04-27T12:27:04.550Z,1005.4
2018-04-27T12:28:06.949Z,1005.4
2018-04-27T12:29:09.347Z,1005.3
2018-04-27T12:30:11.741Z,1005.4
2018-04-27T12:31:14.275Z,1005.4
2018-04-27T12:32:17.036Z,1005.4
2018-04-27T12:33:19.435Z,1005.4
2018-04-27T12:34:21.836Z,1005.4
2018-04-27T12:35:24.231Z,1005.4
2018-04-27T12:36:26.731Z,1005.4
2018-04-27T12:37:29.513Z,1005.5
2018-04-27T12:38:32.326Z,1005.4
2018-04-27T12:39:34.720Z,1005.5
2018-04-27T12:40:37.117Z,1005.5
2018-04-27T12:41:39.515Z,1005.5
2018-04-27T12:42:41.898Z,1005.5
2018-04-27T12:43:44.391Z,1005.5
2018-04-27T12:44:47.174Z,1005.5
2018-04-27T12:45:49.571Z,1005.5
2018-04-27T12:46:52.944Z,1005.4
2018-04-27T12:47:57.348Z,1005.4
2018-04-27T12:48:59.928Z,1005.4
2018-04-27T12:50:02.893Z,1005.4
2018-04-27T12:51:05.328Z,1005.4
2018-04-27T12:52:07.811Z,1005.4
2018-04-27T12:53:10.516Z,1005.3
2018-04-27T12:54:12.915Z,1005.4
2018-04-27T12:55:15.341Z,1005.3
2018-04-27T12:56:17.733Z,1005.4
2018-04-27T12:57:20.183Z,1005.3
2018-04-27T12:58:22.973Z,1005.3
2018-04-27T12:59:25.488Z,1005.3
2018-04-27T13:00:28.247Z,1005.4